Time;durP1;ratioP1;P1;durP2;ratioP2;P2;SDS_P1;SDS_P2;PMS_P1;PMS_P2;Temp;Humidity;BMP_temperature;BMP_pressure;BME280_temperature;BME280_humidity;BME280_pressure;Samples;Min_cycle;Max_cycle;Signal;HPM_P1;HPM_P2
2022/06/19 00:00:30;;;;;;;24.07;5.07;;;;;;;;;;4971522;28;20473;-71
2022/06/19 00:02:56;;;;;;;20.80;4.00;;;;;;;;;;4971085;28;20812;-72
2022/06/19 00:05:22;;;;;;;24.00;4.77;;;;;;;;;;4969840;28;20493;-72
2022/06/19 00:07:48;;;;;;;13.80;5.87;;;;;;;;;;4970229;28;20740;-72
2022/06/19 00:10:14;;;;;;;23.63;4.43;;;;;;;;;;4971858;28;20442;-72
2022/06/19 00:12:41;;;;;;;21.97;4.40;;;;;;;;;;4971406;28;20508;-69
2022/06/19 00:15:07;;;;;;;21.80;4.47;;;;;;;;;;4971437;28;20813;-70
2022/06/19 00:17:33;;;;;;;17.13;4.10;;;;;;;;;;4971142;28;20485;-71
2022/06/19 00:19:59;;;;;;;19.63;3.37;;;;;;;;;;4971755;28;20426;-71
2022/06/19 00:22:25;;;;;;;26.13;5.60;;;;;;;;;;4971896;28;20481;-70
2022/06/19 00:24:51;;;;;;;14.80;4.00;;;;;;;;;;4971123;28;20436;-72
2022/06/19 00:27:17;;;;;;;17.33;5.47;;;;;;;;;;4970195;28;20434;-71
2022/06/19 00:29:43;;;;;;;31.77;6.03;;;;;;;;;;4970717;28;20480;-71
2022/06/19 00:32:09;;;;;;;13.47;6.23;;;;;;;;;;4969266;28;20446;-70
2022/06/19 00:34:38;;;;;;;22.37;4.37;;;;;;;;;;4971172;28;20922;-71
2022/06/19 00:37:05;;;;;;;11.63;4.20;;;;;;;;;;4970948;28;20465;-72
2022/06/19 00:39:39;;;;;;;16.10;5.13;;;;;;;;;;4970933;28;20444;-71
2022/06/19 00:42:05;;;;;;;9.53;4.20;;;;;;;;;;4970696;28;20469;-70
2022/06/19 00:44:31;;;;;;;14.70;4.33;;;;;;;;;;4969196;28;20497;-72
2022/06/19 00:47:00;;;;;;;16.10;3.47;;;;;;;;;;4970826;28;20442;-71
2022/06/19 00:49:31;;;;;;;16.17;5.37;;;;;;;;;;4970391;28;21012;-70
2022/06/19 00:52:05;;;;;;;10.80;4.03;;;;;;;;;;4970750;28;20442;-71
2022/06/19 00:54:43;;;;;;;14.97;4.00;;;;;;;;;;4969739;28;20441;-72
2022/06/19 00:57:09;;;;;;;6.77;3.90;;;;;;;;;;4969876;28;20486;-71
2022/06/19 00:59:37;;;;;;;20.10;5.23;;;;;;;;;;4970515;28;20430;-70
2022/06/19 01:02:03;;;;;;;13.23;3.93;;;;;;;;;;4970374;28;21019;-70
2022/06/19 01:04:40;;;;;;;19.27;6.20;;;;;;;;;;4970207;28;20973;-69
2022/06/19 01:07:06;;;;;;;25.17;5.70;;;;;;;;;;4970582;28;20525;-71
2022/06/19 01:09:32;;;;;;;18.40;6.17;;;;;;;;;;4970148;28;20533;-72
2022/06/19 01:12:00;;;;;;;15.03;5.90;;;;;;;;;;4969842;28;20905;-72
2022/06/19 01:14:27;;;;;;;17.33;5.17;;;;;;;;;;4970313;28;20915;-71
2022/06/19 01:16:53;;;;;;;12.13;4.60;;;;;;;;;;4970028;28;20442;-71
2022/06/19 01:19:34;;;;;;;26.43;5.20;;;;;;;;;;4969648;28;20430;-71
2022/06/19 01:22:06;;;;;;;18.40;5.27;;;;;;;;;;4969480;28;20560;-67
2022/06/19 01:24:39;;;;;;;13.10;4.40;;;;;;;;;;4970175;28;20504;-72
2022/06/19 01:27:07;;;;;;;11.67;4.23;;;;;;;;;;4970012;28;20466;-71
2022/06/19 01:29:33;;;;;;;16.53;4.63;;;;;;;;;;4970597;28;20493;-70
2022/06/19 01:32:05;;;;;;;17.57;5.63;;;;;;;;;;4967853;28;20513;-71
2022/06/19 01:34:35;;;;;;;12.63;5.00;;;;;;;;;;4970099;28;20430;-72
2022/06/19 01:37:05;;;;;;;23.50;5.30;;;;;;;;;;4970557;28;20437;-71
2022/06/19 01:39:35;;;;;;;18.97;4.73;;;;;;;;;;4969945;28;20480;-72
2022/06/19 01:42:03;;;;;;;20.40;5.70;;;;;;;;;;4970012;28;20513;-71
2022/06/19 01:44:29;;;;;;;11.83;3.93;;;;;;;;;;4970071;28;20445;-69
2022/06/19 01:46:55;;;;;;;11.33;4.40;;;;;;;;;;4969983;28;20445;-72
2022/06/19 01:49:21;;;;;;;13.97;4.70;;;;;;;;;;4969655;28;20827;-71
2022/06/19 01:51:46;;;;;;;16.87;4.90;;;;;;;;;;4969925;28;20449;-72
2022/06/19 01:54:15;;;;;;;16.23;5.17;;;;;;;;;;4970455;28;20437;-72
2022/06/19 01:56:41;;;;;;;12.57;4.10;;;;;;;;;;4969722;28;20931;-71
2022/06/19 01:59:09;;;;;;;23.43;5.70;;;;;;;;;;4972506;28;20434;-72
2022/06/19 02:01:36;;;;;;;15.60;5.73;;;;;;;;;;4973709;28;20997;-70
2022/06/19 02:04:02;;;;;;;10.47;4.80;;;;;;;;;;4972642;28;20437;-71
2022/06/19 02:06:30;;;;;;;18.93;4.10;;;;;;;;;;4973661;28;20967;-68
2022/06/19 02:08:56;;;;;;;10.10;4.67;;;;;;;;;;4973653;28;20438;-72
2022/06/19 02:11:23;;;;;;;20.73;5.30;;;;;;;;;;4973583;28;20446;-72
2022/06/19 02:13:49;;;;;;;21.90;5.30;;;;;;;;;;4973828;28;20449;-71
2022/06/19 02:16:19;;;;;;;18.77;4.93;;;;;;;;;;4973628;28;20422;-69
2022/06/19 02:18:48;;;;;;;29.07;5.40;;;;;;;;;;4973522;28;20452;-69
2022/06/19 02:21:18;;;;;;;12.37;4.70;;;;;;;;;;4973831;28;20466;-70
2022/06/19 02:23:44;;;;;;;17.67;4.30;;;;;;;;;;4973853;28;20485;-71
2022/06/19 02:26:12;;;;;;;14.77;5.20;;;;;;;;;;4973880;28;20929;-72
2022/06/19 02:28:40;;;;;;;22.77;4.60;;;;;;;;;;4972233;28;20434;-71
2022/06/19 02:31:06;;;;;;;24.77;6.17;;;;;;;;;;4973663;28;20449;-72
2022/06/19 02:33:34;;;;;;;25.10;4.47;;;;;;;;;;4973664;28;20476;-70
2022/06/19 02:36:01;;;;;;;21.93;4.67;;;;;;;;;;4973517;28;20445;-68
2022/06/19 02:38:27;;;;;;;22.13;4.20;;;;;;;;;;4972350;28;20944;-71
2022/06/19 02:41:06;;;;;;;28.97;4.93;;;;;;;;;;4973226;28;20489;-72
2022/06/19 02:43:33;;;;;;;11.87;4.50;;;;;;;;;;4973422;28;20472;-71
2022/06/19 02:46:01;;;;;;;14.97;4.10;;;;;;;;;;4973890;28;20496;-71
2022/06/19 02:48:28;;;;;;;20.60;5.40;;;;;;;;;;4973145;28;20444;-71
2022/06/19 02:50:55;;;;;;;13.77;4.00;;;;;;;;;;4971515;28;20481;-72
2022/06/19 02:53:22;;;;;;;15.70;4.30;;;;;;;;;;4971573;28;20524;-72
2022/06/19 02:55:48;;;;;;;14.33;4.40;;;;;;;;;;4971927;28;20448;-71
2022/06/19 02:58:15;;;;;;;10.83;4.07;;;;;;;;;;4972158;28;20438;-71
2022/06/19 03:00:41;;;;;;;9.13;4.30;;;;;;;;;;4971623;28;20628;-71
2022/06/19 03:03:20;;;;;;;21.87;3.97;;;;;;;;;;4970749;28;21402;-72
2022/06/19 03:05:46;;;;;;;24.07;3.60;;;;;;;;;;4953869;28;20418;-71
2022/06/19 03:08:12;;;;;;;14.77;4.87;;;;;;;;;;4970888;28;20442;-71
2022/06/19 03:10:38;;;;;;;20.77;4.37;;;;;;;;;;4971287;28;20945;-71
2022/06/19 03:13:04;;;;;;;14.43;4.70;;;;;;;;;;4971331;28;20873;-70
2022/06/19 03:15:30;;;;;;;7.70;4.50;;;;;;;;;;4970937;28;20448;-71
2022/06/19 03:17:56;;;;;;;25.47;4.20;;;;;;;;;;4971406;28;20438;-71
2022/06/19 03:20:24;;;;;;;8.50;4.67;;;;;;;;;;4972011;28;20488;-72
2022/06/19 03:22:50;;;;;;;14.57;4.17;;;;;;;;;;4971193;28;20477;-71
2022/06/19 03:25:16;;;;;;;14.70;3.77;;;;;;;;;;4971249;28;20954;-70
2022/06/19 03:27:42;;;;;;;10.73;4.00;;;;;;;;;;4971122;28;20434;-71
2022/06/19 03:30:09;;;;;;;16.80;5.70;;;;;;;;;;4970778;28;20976;-72
2022/06/19 03:32:35;;;;;;;16.33;4.50;;;;;;;;;;4970679;28;20430;-71
2022/06/19 03:35:01;;;;;;;12.83;4.10;;;;;;;;;;4971618;28;20496;-72
2022/06/19 03:37:27;;;;;;;11.93;5.13;;;;;;;;;;4970743;28;20445;-71
2022/06/19 03:39:53;;;;;;;15.00;4.17;;;;;;;;;;4970580;28;20446;-71
2022/06/19 03:42:19;;;;;;;8.03;3.93;;;;;;;;;;4970511;28;20492;-71
2022/06/19 03:44:45;;;;;;;28.03;4.10;;;;;;;;;;4971640;28;20422;-72
2022/06/19 03:47:14;;;;;;;9.13;3.17;;;;;;;;;;4970865;28;20493;-71
2022/06/19 03:49:40;;;;;;;15.43;4.10;;;;;;;;;;4935177;28;1056489;-69
2022/06/19 03:52:07;;;;;;;9.17;3.30;;;;;;;;;;4970237;28;20202;-68
2022/06/19 03:54:33;;;;;;;15.43;4.13;;;;;;;;;;4971949;28;20853;-66
2022/06/19 03:56:59;;;;;;;19.73;4.50;;;;;;;;;;4971590;28;20460;-67
2022/06/19 03:59:25;;;;;;;13.77;3.57;;;;;;;;;;4971925;28;20437;-67
2022/06/19 04:01:52;;;;;;;13.93;3.87;;;;;;;;;;4971186;28;20859;-67
2022/06/19 04:04:18;;;;;;;11.60;3.20;;;;;;;;;;4971244;28;20584;-70
2022/06/19 04:06:44;;;;;;;12.97;3.83;;;;;;;;;;4971001;28;20984;-70
2022/06/19 04:09:13;;;;;;;5.27;3.03;;;;;;;;;;4971207;28;20438;-70
2022/06/19 04:11:39;;;;;;;18.50;3.97;;;;;;;;;;4971954;28;20457;-67
2022/06/19 04:14:05;;;;;;;15.13;4.20;;;;;;;;;;4971188;28;20434;-66
2022/06/19 04:16:31;;;;;;;11.53;3.67;;;;;;;;;;4971579;28;20528;-67
2022/06/19 04:18:58;;;;;;;19.30;4.03;;;;;;;;;;4971544;28;20433;-67
2022/06/19 04:21:26;;;;;;;11.43;3.73;;;;;;;;;;4970054;28;20618;-72
2022/06/19 04:23:56;;;;;;;16.60;3.60;;;;;;;;;;4971658;28;20455;-70
2022/06/19 04:26:23;;;;;;;16.20;4.00;;;;;;;;;;4971117;28;20450;-72
2022/06/19 04:28:49;;;;;;;29.20;4.00;;;;;;;;;;4971205;28;20442;-65
2022/06/19 04:31:16;;;;;;;24.30;4.87;;;;;;;;;;4971038;28;20454;-69
2022/06/19 04:33:42;;;;;;;13.23;4.03;;;;;;;;;;4971419;28;20450;-72
2022/06/19 04:36:10;;;;;;;25.13;4.00;;;;;;;;;;4970501;28;20500;-72
2022/06/19 04:38:37;;;;;;;20.03;3.90;;;;;;;;;;4969593;28;20926;-72
2022/06/19 04:41:03;;;;;;;17.77;4.07;;;;;;;;;;4970641;28;20505;-68
2022/06/19 04:43:29;;;;;;;10.70;3.60;;;;;;;;;;4970788;28;20870;-69
2022/06/19 04:46:13;;;;;;;13.27;4.70;;;;;;;;;;4970803;28;20496;-66
2022/06/19 04:48:39;;;;;;;19.47;5.43;;;;;;;;;;4970023;28;20486;-70
2022/06/19 04:51:07;;;;;;;8.00;3.80;;;;;;;;;;4969243;28;20474;-67
2022/06/19 04:53:34;;;;;;;8.33;5.33;;;;;;;;;;4970766;28;20441;-72
2022/06/19 04:56:00;;;;;;;23.10;4.87;;;;;;;;;;4971387;28;20437;-69
2022/06/19 04:58:26;;;;;;;17.90;4.43;;;;;;;;;;4970072;28;20462;-67
2022/06/19 05:00:53;;;;;;;23.40;4.77;;;;;;;;;;4970695;28;20485;-71
2022/06/19 05:03:20;;;;;;;18.90;4.17;;;;;;;;;;4970588;28;20445;-68
2022/06/19 05:05:47;;;;;;;14.90;3.40;;;;;;;;;;4970467;28;20426;-70
2022/06/19 05:08:13;;;;;;;15.43;3.37;;;;;;;;;;4969490;28;20452;-66
2022/06/19 05:10:39;;;;;;;23.33;3.60;;;;;;;;;;4970496;28;20433;-70
2022/06/19 05:13:06;;;;;;;10.33;4.03;;;;;;;;;;4970399;28;20438;-66
2022/06/19 05:15:33;;;;;;;9.83;2.60;;;;;;;;;;4970738;28;20997;-66
2022/06/19 05:17:59;;;;;;;13.07;3.97;;;;;;;;;;4969472;28;20479;-67
2022/06/19 05:20:25;;;;;;;14.80;4.17;;;;;;;;;;4970582;28;20433;-69
2022/06/19 05:22:51;;;;;;;8.77;3.50;;;;;;;;;;4970036;28;20441;-66
2022/06/19 05:25:16;;;;;;;10.33;4.00;;;;;;;;;;4970331;28;20899;-66
2022/06/19 05:27:43;;;;;;;18.87;5.20;;;;;;;;;;4969987;28;20437;-75
2022/06/19 05:30:11;;;;;;;13.03;4.20;;;;;;;;;;4969074;28;20182;-65
2022/06/19 05:32:37;;;;;;;14.40;4.15;;;;;;;;;;4969009;28;20433;-69
2022/06/19 05:35:03;;;;;;;28.27;4.03;;;;;;;;;;4970346;28;20237;-70
2022/06/19 05:37:29;;;;;;;12.87;4.63;;;;;;;;;;4968841;28;20530;-72
2022/06/19 05:39:55;;;;;;;18.20;4.00;;;;;;;;;;4969267;28;20473;-71
2022/06/19 05:42:21;;;;;;;18.03;4.03;;;;;;;;;;4969445;28;20481;-70
2022/06/19 05:44:47;;;;;;;22.53;4.23;;;;;;;;;;4970712;28;20422;-71
2022/06/19 05:47:13;;;;;;;13.60;4.60;;;;;;;;;;4970290;28;20440;-67
2022/06/19 05:49:39;;;;;;;9.33;3.80;;;;;;;;;;4965570;28;20480;-68
2022/06/19 05:52:14;;;;;;;17.73;3.97;;;;;;;;;;4970609;28;20426;-66
2022/06/19 05:54:40;;;;;;;9.27;3.17;;;;;;;;;;4968824;28;20528;-71
2022/06/19 05:57:06;;;;;;;36.80;4.33;;;;;;;;;;4970172;28;20529;-68
2022/06/19 05:59:32;;;;;;;12.90;3.80;;;;;;;;;;4970325;28;20438;-71
2022/06/19 06:01:58;;;;;;;4.70;2.93;;;;;;;;;;4969564;28;20942;-68
2022/06/19 06:04:24;;;;;;;24.97;4.90;;;;;;;;;;4970046;28;20438;-67
2022/06/19 06:06:50;;;;;;;15.87;3.77;;;;;;;;;;4969398;28;20461;-67
2022/06/19 06:09:16;;;;;;;14.10;4.17;;;;;;;;;;4968329;28;20464;-70
2022/06/19 06:11:42;;;;;;;9.93;3.53;;;;;;;;;;4970197;28;20496;-71
2022/06/19 06:14:08;;;;;;;71.53;24.80;;;;;;;;;;4969811;28;20446;-68
2022/06/19 06:16:34;;;;;;;14.30;3.97;;;;;;;;;;4969300;28;20472;-71
2022/06/19 06:19:00;;;;;;;15.47;4.57;;;;;;;;;;4968051;28;20442;-71
2022/06/19 06:21:26;;;;;;;15.63;4.90;;;;;;;;;;4969209;28;20485;-71
2022/06/19 06:23:53;;;;;;;11.90;3.70;;;;;;;;;;4969877;28;20437;-71
2022/06/19 06:26:20;;;;;;;12.90;3.40;;;;;;;;;;4969096;28;20524;-66
2022/06/19 06:28:48;;;;;;;18.17;3.60;;;;;;;;;;4969523;28;20461;-72
2022/06/19 06:31:15;;;;;;;10.57;3.97;;;;;;;;;;4969440;28;21009;-71
2022/06/19 06:33:41;;;;;;;11.40;3.73;;;;;;;;;;4970154;28;20433;-67
2022/06/19 06:36:07;;;;;;;11.97;3.80;;;;;;;;;;4970514;28;20569;-71
2022/06/19 06:38:33;;;;;;;15.00;3.57;;;;;;;;;;4968705;28;20437;-71
2022/06/19 06:40:59;;;;;;;8.90;4.07;;;;;;;;;;4969228;28;20481;-72
2022/06/19 06:43:25;;;;;;;8.00;3.70;;;;;;;;;;4969460;28;20465;-71
2022/06/19 06:45:52;;;;;;;11.00;3.30;;;;;;;;;;4972405;28;20438;-71
2022/06/19 06:48:18;;;;;;;8.20;3.00;;;;;;;;;;4972193;28;20934;-66
2022/06/19 06:50:45;;;;;;;5.70;3.50;;;;;;;;;;4971065;28;20500;-67
2022/06/19 06:53:11;;;;;;;13.27;3.63;;;;;;;;;;4973116;28;20510;-68
2022/06/19 06:55:38;;;;;;;10.80;3.50;;;;;;;;;;4973734;28;20491;-67
2022/06/19 06:58:04;;;;;;;13.17;4.07;;;;;;;;;;4973601;28;20430;-68
2022/06/19 07:00:30;;;;;;;4.63;4.07;;;;;;;;;;4971678;28;20441;-68
2022/06/19 07:02:58;;;;;;;7.40;3.50;;;;;;;;;;4973429;28;20434;-67
2022/06/19 07:05:24;;;;;;;7.80;3.50;;;;;;;;;;4973610;28;20934;-68
2022/06/19 07:07:50;;;;;;;13.63;3.97;;;;;;;;;;4972942;28;20462;-68
2022/06/19 07:10:16;;;;;;;19.07;3.90;;;;;;;;;;4972427;28;20815;-67
2022/06/19 07:12:42;;;;;;;18.97;4.30;;;;;;;;;;4973159;28;20455;-65
2022/06/19 07:15:10;;;;;;;14.70;5.00;;;;;;;;;;4973445;28;20926;-66
2022/06/19 07:17:36;;;;;;;4.40;3.60;;;;;;;;;;4973035;28;20465;-67
2022/06/19 07:20:02;;;;;;;9.33;4.93;;;;;;;;;;4972292;28;20667;-79
2022/06/19 07:22:28;;;;;;;15.70;5.47;;;;;;;;;;4972053;28;20482;-68
2022/06/19 07:24:54;;;;;;;14.47;4.60;;;;;;;;;;4972168;28;20456;-66
2022/06/19 07:27:20;;;;;;;11.40;4.50;;;;;;;;;;4972373;28;20441;-68
2022/06/19 07:29:46;;;;;;;10.70;4.00;;;;;;;;;;4972831;28;20429;-66
2022/06/19 07:32:13;;;;;;;5.03;4.00;;;;;;;;;;4972796;28;20422;-68
2022/06/19 07:34:39;;;;;;;9.50;6.33;;;;;;;;;;4972843;28;20426;-65
2022/06/19 07:37:05;;;;;;;8.37;6.77;;;;;;;;;;4972274;28;20929;-67
2022/06/19 07:39:32;;;;;;;7.10;6.40;;;;;;;;;;4971096;28;20440;-67
2022/06/19 07:41:59;;;;;;;6.97;6.37;;;;;;;;;;4972487;28;20965;-65
2022/06/19 07:44:25;;;;;;;13.00;7.13;;;;;;;;;;4972613;28;20430;-66
2022/06/19 07:52:21;;;;;;;8.20;7.50;;;;;;;;;;4972631;28;20430;-65
2022/06/19 07:54:47;;;;;;;12.00;7.70;;;;;;;;;;4972400;28;20429;-66
2022/06/19 07:57:13;;;;;;;16.60;9.97;;;;;;;;;;4970431;28;20971;-65
2022/06/19 07:59:39;;;;;;;16.40;7.50;;;;;;;;;;4972302;28;20434;-65
2022/06/19 08:02:06;;;;;;;7.67;7.07;;;;;;;;;;4971810;28;20492;-65
2022/06/19 08:04:32;;;;;;;12.23;7.30;;;;;;;;;;4972337;28;20524;-65
2022/06/19 08:06:58;;;;;;;7.53;6.80;;;;;;;;;;4968785;28;20615;-66
2022/06/19 08:09:24;;;;;;;10.30;7.30;;;;;;;;;;4971693;28;20985;-66
2022/06/19 08:11:50;;;;;;;8.63;7.70;;;;;;;;;;4970241;28;20451;-67
2022/06/19 08:14:16;;;;;;;9.37;8.37;;;;;;;;;;4971139;28;20548;-66
2022/06/19 08:16:42;;;;;;;15.93;8.30;;;;;;;;;;4970896;28;20438;-65
2022/06/19 08:19:08;;;;;;;11.47;7.90;;;;;;;;;;4971830;28;20862;-65
2022/06/19 08:21:34;;;;;;;11.83;8.43;;;;;;;;;;4970933;28;21029;-66
2022/06/19 08:24:00;;;;;;;16.63;7.47;;;;;;;;;;4971665;28;20521;-65
2022/06/19 08:26:26;;;;;;;10.47;8.20;;;;;;;;;;4968708;28;20920;-66
2022/06/19 08:29:01;;;;;;;12.07;7.50;;;;;;;;;;4971583;28;20458;-65
2022/06/19 08:31:27;;;;;;;14.53;7.17;;;;;;;;;;4970670;28;20449;-65
2022/06/19 08:33:53;;;;;;;15.23;8.60;;;;;;;;;;4970797;28;20470;-68
2022/06/19 08:36:20;;;;;;;8.07;7.23;;;;;;;;;;4969390;28;20469;-70
2022/06/19 08:38:48;;;;;;;22.60;8.27;;;;;;;;;;4968413;28;20485;-74
2022/06/19 08:41:14;;;;;;;13.20;7.93;;;;;;;;;;4971104;28;20477;-72
2022/06/19 08:43:42;;;;;;;10.20;8.70;;;;;;;;;;4970138;28;20989;-70
2022/06/19 08:46:18;;;;;;;30.43;8.87;;;;;;;;;;4970288;28;20214;-66
2022/06/19 08:48:50;;;;;;;12.70;8.80;;;;;;;;;;4971150;28;20430;-71
2022/06/19 08:51:32;;;;;;;9.43;8.20;;;;;;;;;;4971174;28;20462;-68
2022/06/19 08:54:01;;;;;;;12.80;8.47;;;;;;;;;;4969089;28;20505;-66
2022/06/19 08:56:56;;;;;;;11.03;8.37;;;;;;;;;;4970500;28;20986;-67
2022/06/19 08:59:37;;;;;;;10.50;7.50;;;;;;;;;;4934511;28;20461;-66
2022/06/19 09:02:22;;;;;;;8.73;7.83;;;;;;;;;;4969875;28;20488;-66
2022/06/19 09:07:45;;;;;;;15.03;8.40;;;;;;;;;;4969777;28;20795;-65
2022/06/19 09:10:24;;;;;;;16.20;8.70;;;;;;;;;;4969939;28;20501;-67
2022/06/19 09:12:58;;;;;;;10.83;7.67;;;;;;;;;;4967023;28;20438;-68
2022/06/19 09:15:38;;;;;;;8.53;7.77;;;;;;;;;;4964474;28;21736;-66
2022/06/19 09:18:05;;;;;;;14.47;7.30;;;;;;;;;;4966516;28;20429;-67
2022/06/19 09:20:31;;;;;;;15.90;8.50;;;;;;;;;;4964828;28;20433;-65
2022/06/19 09:23:16;;;;;;;8.30;7.50;;;;;;;;;;4971735;28;20590;-70
2022/06/19 09:26:00;;;;;;;8.80;7.90;;;;;;;;;;4972296;28;20430;-69
2022/06/19 09:28:29;;;;;;;12.67;7.57;;;;;;;;;;4972622;28;20929;-67
2022/06/19 09:31:01;;;;;;;12.67;7.40;;;;;;;;;;4973813;28;20432;-69
2022/06/19 09:33:33;;;;;;;16.93;7.40;;;;;;;;;;4973681;28;20410;-66
2022/06/19 09:36:06;;;;;;;15.17;8.17;;;;;;;;;;4973946;28;20417;-65
2022/06/19 09:38:35;;;;;;;9.80;7.60;;;;;;;;;;4958275;28;20501;-66
2022/06/19 09:41:04;;;;;;;15.43;11.00;;;;;;;;;;4973727;28;20462;-67
2022/06/19 09:43:52;;;;;;;9.33;8.53;;;;;;;;;;4974064;28;20545;-66
2022/06/19 09:46:21;;;;;;;17.43;9.40;;;;;;;;;;4973873;28;20437;-67
2022/06/19 09:49:00;;;;;;;14.40;8.80;;;;;;;;;;4974250;28;20524;-65
2022/06/19 09:51:26;;;;;;;9.73;8.77;;;;;;;;;;4971873;28;20791;-67
2022/06/19 09:53:52;;;;;;;11.57;8.27;;;;;;;;;;4972487;28;20918;-66
2022/06/19 09:56:22;;;;;;;15.30;9.27;;;;;;;;;;4966417;28;20203;-66
2022/06/19 09:58:54;;;;;;;10.10;8.63;;;;;;;;;;4961693;28;20187;-69
2022/06/19 10:01:21;;;;;;;25.43;12.10;;;;;;;;;;4954333;29;20829;-66
2022/06/19 10:03:54;;;;;;;14.23;8.90;;;;;;;;;;4954135;28;20445;-66
2022/06/19 10:06:29;;;;;;;11.03;9.77;;;;;;;;;;4972839;28;20472;-65
2022/06/19 10:08:57;;;;;;;16.77;10.40;;;;;;;;;;4973275;28;20858;-66
2022/06/19 10:11:24;;;;;;;19.07;8.70;;;;;;;;;;4972363;28;20645;-65
2022/06/19 10:13:50;;;;;;;16.43;10.50;;;;;;;;;;4973210;28;20438;-66
2022/06/19 10:16:24;;;;;;;10.17;8.87;;;;;;;;;;4972275;28;20464;-66
2022/06/19 10:18:52;;;;;;;24.63;16.40;;;;;;;;;;4972785;28;20182;-65
2022/06/19 10:24:18;;;;;;;30.53;8.93;;;;;;;;;;4976356;28;20465;-64
2022/06/19 10:26:58;;;;;;;19.07;8.13;;;;;;;;;;4975312;28;20461;-65
2022/06/19 10:29:23;;;;;;;8.03;7.23;;;;;;;;;;4976433;28;20548;-66
2022/06/19 10:31:49;;;;;;;10.63;7.87;;;;;;;;;;4977226;28;20926;-65
2022/06/19 10:34:34;;;;;;;14.80;8.90;;;;;;;;;;4976727;28;20265;-66
2022/06/19 10:37:00;;;;;;;16.13;8.73;;;;;;;;;;4975247;28;20705;-70
2022/06/19 10:39:45;;;;;;;11.13;8.60;;;;;;;;;;4976982;28;20429;-67
2022/06/19 10:42:11;;;;;;;18.73;8.30;;;;;;;;;;4973002;28;20222;-63
2022/06/19 10:44:46;;;;;;;13.00;9.77;;;;;;;;;;4977557;28;20453;-65
2022/06/19 10:47:31;;;;;;;7.93;7.20;;;;;;;;;;4976849;28;20433;-66
2022/06/19 10:50:29;;;;;;;8.70;7.37;;;;;;;;;;4976834;28;20470;-65
2022/06/19 10:53:07;;;;;;;12.20;7.40;;;;;;;;;;4942569;28;20876;-65
2022/06/19 10:55:42;;;;;;;8.83;7.73;;;;;;;;;;4976876;28;21086;-65
2022/06/19 10:58:11;;;;;;;8.13;7.00;;;;;;;;;;4976560;28;20420;-66
2022/06/19 11:00:37;;;;;;;9.43;7.17;;;;;;;;;;4976312;28;20430;-72
2022/06/19 11:06:10;;;;;;;9.13;7.33;;;;;;;;;;4962015;28;20449;-65
2022/06/19 11:08:37;;;;;;;7.50;6.77;;;;;;;;;;4964472;28;20454;-65
2022/06/19 11:11:03;;;;;;;16.83;8.80;;;;;;;;;;4976384;28;20434;-68
2022/06/19 11:13:49;;;;;;;18.67;9.47;;;;;;;;;;4958252;28;20465;-65
2022/06/19 11:16:15;;;;;;;15.07;7.90;;;;;;;;;;4964643;28;20942;-65
2022/06/19 11:18:46;;;;;;;17.10;7.83;;;;;;;;;;4975539;28;20426;-74
2022/06/19 11:21:13;;;;;;;13.60;7.80;;;;;;;;;;4975692;28;20584;-65
2022/06/19 11:23:49;;;;;;;8.20;7.40;;;;;;;;;;4962010;28;20933;-67
2022/06/19 11:26:14;;;;;;;10.80;6.70;;;;;;;;;;4975204;28;20524;-68
2022/06/19 11:28:50;;;;;;;9.60;8.03;;;;;;;;;;4973951;28;20553;-65
2022/06/19 11:31:18;;;;;;;10.63;8.00;;;;;;;;;;4974092;28;20286;-67
2022/06/19 11:33:44;;;;;;;16.13;8.60;;;;;;;;;;4975163;28;20438;-66
2022/06/19 11:36:24;;;;;;;17.60;8.53;;;;;;;;;;4975809;28;20513;-66
2022/06/19 11:38:52;;;;;;;24.20;8.37;;;;;;;;;;4969848;28;20800;-67
2022/06/19 11:41:26;;;;;;;14.10;6.00;;;;;;;;;;4969240;28;20478;-73
2022/06/19 11:44:01;;;;;;;17.37;7.20;;;;;;;;;;4975978;28;20508;-69
2022/06/19 11:46:27;;;;;;;11.73;6.50;;;;;;;;;;4975936;28;20414;-73
2022/06/19 11:48:54;;;;;;;15.03;7.77;;;;;;;;;;4975025;28;20433;-66
2022/06/19 11:51:25;;;;;;;19.33;6.37;;;;;;;;;;4974773;28;20446;-66
2022/06/19 11:53:56;;;;;;;24.57;6.90;;;;;;;;;;4974183;28;20441;-67
2022/06/19 11:56:21;;;;;;;7.60;6.80;;;;;;;;;;4975584;28;20441;-66
2022/06/19 11:58:54;;;;;;;9.80;6.47;;;;;;;;;;4974664;28;20434;-66
2022/06/19 12:01:21;;;;;;;11.67;7.17;;;;;;;;;;4974742;28;20939;-68
2022/06/19 12:03:49;;;;;;;8.20;5.50;;;;;;;;;;4974438;28;20438;-67
2022/06/19 12:06:16;;;;;;;8.90;6.30;;;;;;;;;;4974779;28;20430;-66
2022/06/19 12:08:55;;;;;;;11.43;6.80;;;;;;;;;;4974594;28;20445;-65
2022/06/19 12:11:34;;;;;;;9.40;5.30;;;;;;;;;;4975491;28;20929;-66
2022/06/19 12:14:00;;;;;;;9.53;5.07;;;;;;;;;;4972707;28;20433;-67
2022/06/19 12:16:26;;;;;;;14.77;5.70;;;;;;;;;;4974825;28;20434;-66
2022/06/19 12:18:52;;;;;;;20.37;6.30;;;;;;;;;;4972999;28;20225;-65
2022/06/19 12:21:26;;;;;;;13.87;5.50;;;;;;;;;;4974926;28;20526;-68
2022/06/19 12:24:01;;;;;;;7.47;6.20;;;;;;;;;;4975243;28;20936;-66
2022/06/19 12:26:42;;;;;;;7.93;5.67;;;;;;;;;;4974643;28;20429;-67
2022/06/19 12:29:20;;;;;;;10.43;5.87;;;;;;;;;;4974042;28;20488;-66
2022/06/19 12:31:46;;;;;;;9.93;5.70;;;;;;;;;;4978429;28;20461;-67
2022/06/19 12:34:47;;;;;;;19.63;5.20;;;;;;;;;;4965428;28;20441;-65
2022/06/19 12:37:23;;;;;;;12.63;5.50;;;;;;;;;;4935834;29;20787;-67
2022/06/19 12:39:49;;;;;;;11.43;4.80;;;;;;;;;;4971346;28;20425;-67
2022/06/19 12:42:35;;;;;;;7.00;5.87;;;;;;;;;;4957298;28;20509;-67
2022/06/19 12:45:20;;;;;;;11.23;5.60;;;;;;;;;;4971276;28;20518;-66
2022/06/19 12:47:50;;;;;;;10.33;6.07;;;;;;;;;;4972994;28;20541;-65
2022/06/19 12:50:22;;;;;;;19.43;6.03;;;;;;;;;;4973638;28;20476;-65
2022/06/19 12:53:06;;;;;;;12.73;6.10;;;;;;;;;;4973471;28;20485;-68
2022/06/19 12:55:46;;;;;;;20.97;6.33;;;;;;;;;;4969521;28;20469;-70
2022/06/19 12:58:30;;;;;;;6.60;5.80;;;;;;;;;;4974015;28;20478;-66
2022/06/19 13:00:59;;;;;;;17.80;6.37;;;;;;;;;;4974502;28;20468;-65
2022/06/19 13:03:36;;;;;;;20.47;5.77;;;;;;;;;;4966482;28;20439;-65
2022/06/19 13:06:02;;;;;;;19.50;7.23;;;;;;;;;;4972169;28;20488;-67
2022/06/19 13:08:49;;;;;;;8.30;5.67;;;;;;;;;;4973284;28;20525;-62
2022/06/19 13:11:18;;;;;;;16.80;6.57;;;;;;;;;;4967904;28;20922;-64
2022/06/19 13:13:52;;;;;;;8.50;6.13;;;;;;;;;;4973431;28;20501;-66
2022/06/19 13:16:24;;;;;;;12.07;6.93;;;;;;;;;;4967138;28;20932;-65
2022/06/19 13:19:05;;;;;;;8.57;6.50;;;;;;;;;;4969016;28;20492;-68
2022/06/19 13:21:36;;;;;;;11.40;7.30;;;;;;;;;;4952396;29;20474;-65
2022/06/19 13:24:17;;;;;;;17.10;8.57;;;;;;;;;;4972105;28;20472;-65
2022/06/19 13:27:11;;;;;;;11.70;6.30;;;;;;;;;;4973050;28;20972;-67
2022/06/19 13:29:50;;;;;;;13.20;6.70;;;;;;;;;;4973799;28;20445;-68
2022/06/19 13:32:35;;;;;;;28.47;8.53;;;;;;;;;;4968113;28;20438;-67
2022/06/19 13:35:06;;;;;;;19.47;6.87;;;;;;;;;;4982667;28;20583;-67
2022/06/19 13:37:48;;;;;;;8.63;7.63;;;;;;;;;;4973289;28;20834;-66
2022/06/19 13:40:23;;;;;;;20.00;7.20;;;;;;;;;;4973058;28;20517;-65
2022/06/19 13:42:57;;;;;;;16.13;8.33;;;;;;;;;;4974005;28;20604;-66
2022/06/19 13:45:42;;;;;;;12.70;7.90;;;;;;;;;;4973211;28;20940;-65
2022/06/19 13:48:16;;;;;;;18.80;7.20;;;;;;;;;;4971029;28;20517;-65
2022/06/19 13:50:45;;;;;;;20.23;8.10;;;;;;;;;;4978897;28;20470;-70
2022/06/19 13:53:17;;;;;;;10.03;6.33;;;;;;;;;;4978737;28;20502;-69
2022/06/19 13:55:49;;;;;;;14.50;7.63;;;;;;;;;;4983189;28;20926;-66
2022/06/19 13:58:18;;;;;;;12.03;8.13;;;;;;;;;;4981316;28;20937;-65
2022/06/19 14:00:53;;;;;;;9.07;7.10;;;;;;;;;;4969190;28;20457;-67
2022/06/19 14:03:22;;;;;;;14.83;8.30;;;;;;;;;;4973227;28;20882;-65
2022/06/19 14:05:49;;;;;;;15.07;8.23;;;;;;;;;;4976821;28;20932;-66
2022/06/19 14:08:24;;;;;;;11.47;7.80;;;;;;;;;;4975708;28;20808;-65
2022/06/19 14:10:55;;;;;;;6.83;6.23;;;;;;;;;;4973724;28;20944;-67
2022/06/19 14:13:32;;;;;;;34.63;8.60;;;;;;;;;;4966784;28;20480;-66
2022/06/19 14:15:58;;;;;;;10.37;6.50;;;;;;;;;;4962913;28;20461;-66
2022/06/19 14:18:29;;;;;;;18.63;7.00;;;;;;;;;;4966635;28;20466;-69
2022/06/19 14:21:03;;;;;;;13.80;8.20;;;;;;;;;;4975370;28;20189;-66
2022/06/19 14:23:53;;;;;;;10.97;7.27;;;;;;;;;;4973544;28;20448;-65
2022/06/19 14:26:26;;;;;;;12.00;5.90;;;;;;;;;;4959886;28;20517;-66
2022/06/19 14:29:07;;;;;;;14.00;7.97;;;;;;;;;;4974901;28;20458;-68
2022/06/19 14:31:33;;;;;;;6.90;6.27;;;;;;;;;;4962645;28;20435;-65
2022/06/19 14:34:00;;;;;;;14.17;7.40;;;;;;;;;;4959416;28;20801;-67
2022/06/19 14:36:28;;;;;;;9.53;7.50;;;;;;;;;;4975715;28;20442;-65
2022/06/19 14:38:58;;;;;;;9.30;6.80;;;;;;;;;;4976510;28;20438;-66
2022/06/19 14:41:29;;;;;;;8.07;7.27;;;;;;;;;;4975822;28;20473;-64
2022/06/19 14:44:01;;;;;;;13.43;7.87;;;;;;;;;;4976933;28;20441;-69
2022/06/19 14:46:43;;;;;;;22.80;7.97;;;;;;;;;;4974289;28;20429;-66
2022/06/19 14:49:16;;;;;;;12.60;11.10;;;;;;;;;;4973045;28;20907;-68
2022/06/19 14:52:01;;;;;;;13.23;6.83;;;;;;;;;;4965142;28;20419;-69
2022/06/19 14:54:39;;;;;;;17.07;8.30;;;;;;;;;;4957258;29;20513;-65
2022/06/19 14:57:22;;;;;;;15.57;6.97;;;;;;;;;;4972620;28;20460;-70
2022/06/19 14:59:54;;;;;;;8.77;5.73;;;;;;;;;;4972750;28;20433;-66
2022/06/19 15:02:38;;;;;;;23.13;6.60;;;;;;;;;;4964266;28;20478;-65